Time;durP1;ratioP1;P1;durP2;ratioP2;P2;SDS_P1;SDS_P2;PMS_P1;PMS_P2;Temp;Humidity;BMP_temperature;BMP_pressure;BME280_temperature;BME280_humidity;BME280_pressure;Samples;Min_cycle;Max_cycle;Signal;HPM_P1;HPM_P2
2021/05/16 00:01:29;;;;;;;13.93;10.82;;;10.90;84.50;;;;;;6181517;23;20009;-70
2021/05/16 00:03:55;;;;;;;9.88;8.35;;;10.90;84.70;;;;;;6180961;23;20024;-69
2021/05/16 00:06:20;;;;;;;13.65;10.32;;;10.80;85.40;;;;;;6180223;23;20071;-70
2021/05/16 00:08:48;;;;;;;12.98;11.35;;;10.80;85.60;;;;;;6153713;23;20009;-71
2021/05/16 00:11:16;;;;;;;13.05;10.93;;;10.70;85.50;;;;;;6180400;23;20017;-70
2021/05/16 00:13:47;;;;;;;15.10;10.77;;;10.70;85.60;;;;;;6180059;23;20023;-70
2021/05/16 00:16:13;;;;;;;12.38;10.52;;;10.60;85.70;;;;;;6180440;23;20009;-70
2021/05/16 00:18:39;;;;;;;13.70;10.98;;;10.70;85.80;;;;;;6181521;23;20017;-69
2021/05/16 00:21:05;;;;;;;14.45;9.93;;;10.70;86.10;;;;;;6156812;23;20096;-69
2021/05/16 00:23:31;;;;;;;10.82;9.50;;;10.90;85.90;;;;;;6183628;23;20016;-69
2021/05/16 00:25:57;;;;;;;12.40;9.32;;;10.90;85.60;;;;;;6181698;23;20013;-69
2021/05/16 00:28:23;;;;;;;11.88;9.80;;;10.90;85.60;;;;;;6181826;23;20024;-69
2021/05/16 00:30:48;;;;;;;11.75;9.00;;;11.00;85.50;;;;;;6155584;23;20103;-70
2021/05/16 00:33:14;;;;;;;13.65;10.82;;;10.90;85.20;;;;;;6183092;23;20057;-69
2021/05/16 00:35:40;;;;;;;11.30;9.85;;;11.00;85.30;;;;;;6181753;23;20019;-70
2021/05/16 00:38:06;;;;;;;12.40;9.10;;;10.90;85.40;;;;;;6182309;23;20096;-72
2021/05/16 00:40:34;;;;;;;7.07;6.22;;;10.90;85.50;;;;;;6182512;23;20047;-69
2021/05/16 00:43:00;;;;;;;8.27;7.03;;;11.10;86.60;;;;;;6155213;23;20020;-69
2021/05/16 00:45:27;;;;;;;10.50;8.38;;;11.30;86.70;;;;;;6155364;23;20079;-69
2021/05/16 00:47:58;;;;;;;12.57;8.98;;;11.50;85.70;;;;;;6183253;23;20048;-69
2021/05/16 00:50:27;;;;;;;9.77;8.30;;;11.50;85.10;;;;;;6156125;23;20017;-69
2021/05/16 00:52:53;;;;;;;11.57;9.70;;;11.50;84.70;;;;;;6184409;23;20454;-70
2021/05/16 00:55:20;;;;;;;11.05;9.07;;;11.30;84.30;;;;;;6184284;23;20012;-69
2021/05/16 00:57:46;;;;;;;12.30;9.60;;;11.30;84.40;;;;;;6183700;23;20031;-69
2021/05/16 01:00:18;;;;;;;11.43;9.20;;;11.20;85.00;;;;;;6183419;23;20017;-70
2021/05/16 01:02:44;;;;;;;10.85;9.75;;;11.10;84.80;;;;;;6181509;23;20017;-69
2021/05/16 01:05:13;;;;;;;15.38;11.80;;;11.00;84.90;;;;;;6181817;23;20020;-70
2021/05/16 01:07:40;;;;;;;11.75;10.13;;;11.00;85.00;;;;;;6181225;23;20028;-70
2021/05/16 01:10:08;;;;;;;15.23;10.05;;;10.90;85.00;;;;;;6157276;23;20095;-69
2021/05/16 01:12:46;;;;;;;13.15;10.98;;;10.90;85.30;;;;;;6157425;23;20074;-70
2021/05/16 01:15:16;;;;;;;14.70;10.55;;;10.90;85.30;;;;;;6182690;23;20022;-70
2021/05/16 01:17:42;;;;;;;14.10;10.95;;;10.90;85.40;;;;;;6183574;23;20087;-70
2021/05/16 01:20:10;;;;;;;12.98;10.00;;;11.00;85.50;;;;;;6181305;23;20021;-70
2021/05/16 01:22:37;;;;;;;12.95;10.82;;;11.10;85.20;;;;;;6155385;23;20017;-70
2021/05/16 01:25:05;;;;;;;14.40;9.82;;;11.10;85.30;;;;;;6182802;23;20048;-70
2021/05/16 01:27:31;;;;;;;15.63;11.63;;;11.10;85.60;;;;;;6182527;23;20036;-70
2021/05/16 01:29:56;;;;;;;13.15;11.82;;;11.10;85.80;;;;;;6155847;23;20412;-70
2021/05/16 01:32:24;;;;;;;12.77;10.95;;;11.20;85.50;;;;;;6182167;23;20454;-68
2021/05/16 01:34:50;;;;;;;10.23;8.18;;;11.10;85.40;;;;;;6183133;23;20079;-69
2021/05/16 01:37:17;;;;;;;8.02;6.65;;;11.10;85.90;;;;;;6182356;23;20375;-69
2021/05/16 01:39:45;;;;;;;14.13;11.07;;;11.20;87.40;;;;;;6181415;23;20741;-69
2021/05/16 01:42:11;;;;;;;12.32;10.60;;;11.40;86.80;;;;;;6183235;23;20092;-70
2021/05/16 01:44:38;;;;;;;13.60;11.10;;;11.50;85.60;;;;;;6182493;23;20044;-69
2021/05/16 01:47:04;;;;;;;13.52;10.60;;;11.50;85.50;;;;;;6155104;23;20020;-64
2021/05/16 01:49:42;;;;;;;4.97;3.95;;;11.60;84.90;;;;;;6181199;23;20088;-63
2021/05/16 01:52:09;;;;;;;8.95;6.75;;;11.90;86.00;;;;;;6169900;23;20020;-63
2021/05/16 01:54:35;;;;;;;9.48;6.88;;;12.30;85.20;;;;;;6182601;23;20590;-63
2021/05/16 01:57:03;;;;;;;8.73;7.80;;;12.40;84.20;;;;;;6156144;23;20826;-63
2021/05/16 01:59:29;;;;;;;8.65;7.75;;;12.40;82.70;;;;;;6181311;23;20016;-63
2021/05/16 02:01:59;;;;;;;9.98;8.25;;;12.30;81.70;;;;;;6182484;23;20045;-63
2021/05/16 02:04:30;;;;;;;13.48;8.65;;;12.10;81.80;;;;;;6181263;23;20013;-63
2021/05/16 02:06:56;;;;;;;11.13;9.63;;;11.90;82.10;;;;;;6180791;23;20526;-63
2021/05/16 02:09:22;;;;;;;12.55;9.85;;;11.70;82.50;;;;;;6155008;23;20013;-64
2021/05/16 02:11:49;;;;;;;11.25;10.13;;;11.60;83.00;;;;;;6181266;23;20009;-64
2021/05/16 02:14:26;;;;;;;11.75;9.55;;;11.50;83.40;;;;;;6180816;23;20013;-64
2021/05/16 02:16:53;;;;;;;12.70;9.52;;;11.30;83.80;;;;;;6154462;23;20016;-64
2021/05/16 02:19:19;;;;;;;12.45;9.63;;;11.20;84.30;;;;;;6180967;23;20103;-64
2021/05/16 02:21:45;;;;;;;10.27;9.27;;;11.20;84.50;;;;;;6182320;23;20020;-64
2021/05/16 02:24:11;;;;;;;11.88;9.32;;;11.10;84.70;;;;;;6183093;23;20017;-64
2021/05/16 02:26:38;;;;;;;11.07;9.52;;;11.10;84.90;;;;;;6180553;23;20055;-64
2021/05/16 02:29:04;;;;;;;10.68;9.63;;;11.10;85.20;;;;;;6154621;23;20013;-64
2021/05/16 02:31:31;;;;;;;10.73;9.63;;;11.00;85.40;;;;;;6180993;23;20040;-64
2021/05/16 02:33:56;;;;;;;10.63;9.50;;;11.00;85.60;;;;;;6154695;23;20088;-64
2021/05/16 02:36:22;;;;;;;11.90;9.80;;;11.00;85.60;;;;;;6181562;23;20036;-64
2021/05/16 02:38:48;;;;;;;13.05;10.50;;;11.00;85.90;;;;;;6181866;23;20017;-64
2021/05/16 02:41:14;;;;;;;9.25;8.35;;;11.10;85.70;;;;;;6183098;23;20447;-65
2021/05/16 02:43:40;;;;;;;9.70;8.70;;;11.10;85.90;;;;;;6181187;23;20419;-64
2021/05/16 02:46:06;;;;;;;9.40;8.50;;;11.30;86.10;;;;;;6155496;23;20021;-63
2021/05/16 02:48:31;;;;;;;8.63;7.75;;;11.40;85.60;;;;;;6180702;23;20020;-64
2021/05/16 02:50:57;;;;;;;7.22;5.90;;;11.40;85.40;;;;;;6181559;23;20021;-63
2021/05/16 02:53:23;;;;;;;11.23;8.68;;;11.40;86.20;;;;;;6181699;23;20013;-64
2021/05/16 02:55:49;;;;;;;9.80;8.77;;;11.50;86.10;;;;;;6156660;23;20068;-70
2021/05/16 02:58:15;;;;;;;12.57;9.95;;;11.40;85.70;;;;;;6129303;23;20020;-70
2021/05/16 03:00:41;;;;;;;9.98;9.05;;;11.40;85.50;;;;;;6180668;23;20059;-70
2021/05/16 03:03:07;;;;;;;10.85;9.23;;;11.30;85.50;;;;;;6154563;23;20096;-70
2021/05/16 03:05:34;;;;;;;9.82;8.82;;;11.20;85.70;;;;;;6181371;23;20465;-69
2021/05/16 03:08:00;;;;;;;7.53;5.82;;;11.10;86.10;;;;;;6182822;23;20048;-69
2021/05/16 03:10:25;;;;;;;6.90;6.15;;;11.20;86.80;;;;;;6182052;23;20017;-70
2021/05/16 03:12:52;;;;;;;9.75;8.85;;;11.30;87.60;;;;;;6180489;23;20465;-70
2021/05/16 03:15:18;;;;;;;10.55;9.48;;;11.40;86.70;;;;;;6181279;23;20017;-70
2021/05/16 03:17:44;;;;;;;8.65;7.32;;;11.40;86.20;;;;;;6181574;23;20016;-70
2021/05/16 03:20:11;;;;;;;9.45;8.55;;;11.30;86.20;;;;;;6155094;23;20033;-69
2021/05/16 03:22:37;;;;;;;10.68;9.68;;;11.30;86.60;;;;;;6156746;23;20017;-70
2021/05/16 03:25:04;;;;;;;10.73;9.73;;;11.30;86.50;;;;;;6181238;23;20016;-69
2021/05/16 03:27:30;;;;;;;11.10;9.88;;;11.30;86.40;;;;;;6181808;23;20017;-70
2021/05/16 03:29:56;;;;;;;7.47;6.78;;;11.20;86.30;;;;;;6182618;23;20097;-70
2021/05/16 03:32:22;;;;;;;9.48;8.50;;;11.10;86.90;;;;;;6181686;23;20088;-70
2021/05/16 03:34:48;;;;;;;9.20;8.30;;;11.20;87.30;;;;;;6154215;23;20013;-69
2021/05/16 03:37:14;;;;;;;11.57;10.48;;;11.20;87.10;;;;;;6181129;23;20017;-70
2021/05/16 03:39:40;;;;;;;11.50;10.40;;;11.20;87.50;;;;;;6154358;23;20045;-69
2021/05/16 03:42:07;;;;;;;9.63;8.70;;;11.20;87.20;;;;;;6180548;23;20320;-69
2021/05/16 03:44:33;;;;;;;9.20;8.32;;;11.20;87.00;;;;;;6156221;23;20020;-69
2021/05/16 03:46:59;;;;;;;8.95;8.05;;;11.20;87.60;;;;;;6129793;23;20020;-69
2021/05/16 03:49:25;;;;;;;9.52;8.63;;;11.20;88.00;;;;;;6154767;23;20028;-70
2021/05/16 03:51:51;;;;;;;11.38;10.27;;;11.30;88.40;;;;;;6184134;23;20045;-70
2021/05/16 03:54:17;;;;;;;11.85;10.68;;;11.30;87.90;;;;;;6182813;23;20448;-70
2021/05/16 03:56:43;;;;;;;12.88;11.63;;;11.30;87.90;;;;;;6182289;23;20020;-69
2021/05/16 03:59:09;;;;;;;12.43;11.23;;;11.30;88.00;;;;;;6156425;23;20020;-69
2021/05/16 04:01:35;;;;;;;13.35;11.95;;;11.40;88.00;;;;;;6182754;23;20024;-69
2021/05/16 04:04:02;;;;;;;12.73;11.35;;;11.50;87.50;;;;;;6157004;23;20135;-69
2021/05/16 04:06:29;;;;;;;13.90;12.50;;;11.50;87.20;;;;;;6182795;23;20072;-69
2021/05/16 04:08:55;;;;;;;14.10;12.73;;;11.40;87.00;;;;;;6156508;23;20012;-69
2021/05/16 04:11:21;;;;;;;12.05;10.77;;;11.30;87.10;;;;;;6182890;23;20013;-70
2021/05/16 04:13:47;;;;;;;15.02;13.35;;;11.20;87.50;;;;;;6182335;23;20013;-70
2021/05/16 04:16:12;;;;;;;15.63;13.90;;;11.10;87.90;;;;;;6182105;23;20016;-69
2021/05/16 04:18:38;;;;;;;13.07;11.85;;;11.10;88.20;;;;;;6183775;23;20451;-69
2021/05/16 04:21:05;;;;;;;16.35;14.60;;;11.00;88.40;;;;;;6152511;23;20021;-69
2021/05/16 04:23:34;;;;;;;15.55;13.93;;;11.00;88.70;;;;;;6183313;23;20016;-69
2021/05/16 04:26:01;;;;;;;16.73;14.95;;;10.90;88.90;;;;;;6182919;23;20043;-70
2021/05/16 04:28:27;;;;;;;16.85;15.15;;;10.90;88.80;;;;;;6182076;23;20079;-69
2021/05/16 04:30:53;;;;;;;17.90;15.27;;;10.90;88.80;;;;;;6182001;23;20097;-69
2021/05/16 04:33:19;;;;;;;17.05;15.25;;;11.00;88.90;;;;;;6183942;23;20041;-70
2021/05/16 04:35:45;;;;;;;16.90;15.18;;;11.00;88.80;;;;;;6155824;23;20064;-68
2021/05/16 04:38:10;;;;;;;17.58;15.80;;;11.00;88.90;;;;;;6182756;23;20637;-68
2021/05/16 04:40:36;;;;;;;15.48;13.88;;;11.10;89.00;;;;;;6183433;23;20013;-69
2021/05/16 04:43:02;;;;;;;18.83;16.70;;;11.10;89.00;;;;;;6183476;23;20396;-69
2021/05/16 04:45:28;;;;;;;13.73;12.23;;;11.10;89.00;;;;;;6156942;23;20012;-69
2021/05/16 04:47:54;;;;;;;18.05;16.25;;;11.00;89.00;;;;;;6156835;23;20043;-69
2021/05/16 04:50:20;;;;;;;19.05;16.88;;;11.10;89.50;;;;;;6183781;23;20381;-69
2021/05/16 04:52:46;;;;;;;19.85;17.60;;;11.20;89.20;;;;;;6131205;23;20032;-69
2021/05/16 04:55:14;;;;;;;19.35;17.30;;;11.10;89.00;;;;;;6183284;23;20017;-69
2021/05/16 04:57:40;;;;;;;11.82;10.70;;;11.10;89.20;;;;;;6182184;23;20033;-70
2021/05/16 05:00:07;;;;;;;20.27;17.20;;;11.20;89.40;;;;;;6184441;23;20063;-69
2021/05/16 05:02:38;;;;;;;21.95;17.67;;;11.30;89.50;;;;;;6183126;23;20009;-70
2021/05/16 05:05:04;;;;;;;21.20;16.17;;;11.40;89.00;;;;;;6156349;23;20021;-69
2021/05/16 05:07:30;;;;;;;20.45;18.38;;;11.30;88.80;;;;;;6183139;23;20013;-70
2021/05/16 05:09:56;;;;;;;19.85;16.75;;;11.30;88.90;;;;;;6181762;23;20019;-70
2021/05/16 05:12:22;;;;;;;18.27;16.38;;;11.30;89.00;;;;;;6181679;23;20041;-70
2021/05/16 05:14:48;;;;;;;19.33;17.15;;;11.30;89.00;;;;;;6183469;23;20039;-70
2021/05/16 05:17:13;;;;;;;19.35;16.67;;;11.20;89.10;;;;;;6182596;23;20048;-70
2021/05/16 05:19:39;;;;;;;19.25;17.35;;;11.20;89.30;;;;;;6181782;23;20017;-70
2021/05/16 05:22:05;;;;;;;19.77;16.92;;;11.40;89.60;;;;;;6130801;23;20021;-70
2021/05/16 05:24:31;;;;;;;19.15;17.25;;;11.40;89.20;;;;;;6184714;23;20021;-70
2021/05/16 05:26:57;;;;;;;19.73;17.63;;;11.30;89.00;;;;;;6183991;23;20027;-69
2021/05/16 05:29:22;;;;;;;19.83;17.80;;;11.30;89.30;;;;;;6183370;23;20024;-69
2021/05/16 05:31:48;;;;;;;19.55;17.52;;;11.30;89.40;;;;;;6182350;23;20016;-71
2021/05/16 05:34:14;;;;;;;21.38;18.88;;;11.30;89.60;;;;;;6181239;23;20013;-70
2021/05/16 05:36:40;;;;;;;22.73;18.50;;;11.20;89.60;;;;;;6181653;23;20017;-71
2021/05/16 05:39:07;;;;;;;23.08;18.55;;;11.20;89.60;;;;;;6130330;23;20063;-70
2021/05/16 05:41:34;;;;;;;20.45;18.40;;;11.20;89.70;;;;;;6181297;23;20016;-70
2021/05/16 05:44:00;;;;;;;26.33;20.35;;;11.30;89.80;;;;;;6182063;23;20625;-70
2021/05/16 05:46:29;;;;;;;24.27;19.73;;;11.30;89.70;;;;;;6180913;23;20013;-70
2021/05/16 05:48:55;;;;;;;24.00;19.67;;;11.30;89.70;;;;;;6182329;23;20171;-70
2021/05/16 05:51:21;;;;;;;16.13;10.13;;;11.40;89.80;;;;;;6182082;23;20009;-70
2021/05/16 05:53:47;;;;;;;18.45;13.52;;;11.50;89.90;;;;;;6182360;23;20017;-71
2021/05/16 05:56:13;;;;;;;22.67;19.38;;;11.70;90.00;;;;;;6181412;23;20049;-70
2021/05/16 05:58:40;;;;;;;25.33;18.08;;;11.80;89.20;;;;;;6180851;23;20399;-71
2021/05/16 06:01:06;;;;;;;23.02;19.35;;;11.90;88.80;;;;;;6155001;23;20021;-69
2021/05/16 06:03:32;;;;;;;22.70;18.75;;;11.90;88.50;;;;;;6181406;23;20457;-70
2021/05/16 06:05:58;;;;;;;21.73;18.88;;;11.80;88.20;;;;;;6154887;23;20499;-69
2021/05/16 06:08:24;;;;;;;20.20;15.93;;;11.80;88.30;;;;;;6156100;23;20092;-72
2021/05/16 06:10:50;;;;;;;23.05;18.20;;;11.90;88.60;;;;;;6183309;23;20098;-71
2021/05/16 06:13:16;;;;;;;20.55;18.35;;;12.00;88.10;;;;;;6183431;23;20017;-68
2021/05/16 06:15:42;;;;;;;20.48;15.60;;;11.90;87.80;;;;;;6181474;23;20020;-70
2021/05/16 06:18:08;;;;;;;13.98;11.55;;;11.90;87.60;;;;;;6155939;23;20009;-70
2021/05/16 06:20:34;;;;;;;8.20;6.70;;;12.00;87.80;;;;;;6180773;23;20021;-68
2021/05/16 06:23:03;;;;;;;18.25;16.35;;;12.10;87.90;;;;;;6183099;23;20023;-67
2021/05/16 06:25:29;;;;;;;20.75;16.83;;;12.20;87.60;;;;;;6182976;23;20013;-67
2021/05/16 06:27:56;;;;;;;9.45;8.30;;;12.30;87.10;;;;;;6183445;23;20013;-67
2021/05/16 06:30:26;;;;;;;14.60;10.95;;;12.40;86.40;;;;;;6154611;23;20019;-69
2021/05/16 06:32:52;;;;;;;19.02;15.13;;;12.50;85.90;;;;;;6154827;23;20096;-68
2021/05/16 06:35:18;;;;;;;22.95;15.10;;;12.60;85.10;;;;;;6180648;23;20312;-67
2021/05/16 06:37:47;;;;;;;16.38;13.15;;;12.60;84.50;;;;;;6154680;23;20755;-67
2021/05/16 06:40:14;;;;;;;25.25;16.98;;;12.60;84.30;;;;;;6155705;23;20024;-67
2021/05/16 06:42:43;;;;;;;21.50;15.27;;;12.70;83.80;;;;;;6182845;23;20023;-68
2021/05/16 06:45:11;;;;;;;30.77;20.20;;;12.70;83.60;;;;;;6169004;23;20013;-67
2021/05/16 06:47:37;;;;;;;24.90;17.92;;;12.80;83.80;;;;;;6182919;23;20072;-68
2021/05/16 06:50:05;;;;;;;9.13;6.20;;;12.70;83.60;;;;;;6183221;23;20017;-68
2021/05/16 06:52:31;;;;;;;10.73;7.40;;;12.80;83.60;;;;;;6182710;23;20794;-67
2021/05/16 06:54:57;;;;;;;34.80;21.98;;;13.10;84.00;;;;;;6182052;23;20019;-67
2021/05/16 06:57:23;;;;;;;30.00;19.00;;;13.40;82.40;;;;;;6181481;23;20017;-67
2021/05/16 06:59:48;;;;;;;24.58;17.20;;;13.40;81.80;;;;;;6180540;23;20020;-62
2021/05/16 07:02:14;;;;;;;32.97;22.73;;;13.60;81.80;;;;;;6181010;23;20443;-62
2021/05/16 07:04:42;;;;;;;36.20;23.17;;;13.50;80.60;;;;;;6181949;23;20087;-61
2021/05/16 07:07:09;;;;;;;27.05;17.27;;;13.40;80.60;;;;;;6180680;23;20037;-64
2021/05/16 07:09:37;;;;;;;12.77;8.55;;;13.40;81.20;;;;;;6180227;23;20048;-66
2021/05/16 07:12:03;;;;;;;32.92;21.15;;;13.80;81.60;;;;;;6181858;23;20024;-66
2021/05/16 07:14:29;;;;;;;31.38;20.42;;;13.90;80.00;;;;;;6153835;23;20041;-66
2021/05/16 07:16:55;;;;;;;15.48;9.10;;;13.80;79.60;;;;;;6180450;23;20013;-65
2021/05/16 07:19:23;;;;;;;10.18;7.78;;;13.60;80.40;;;;;;6180066;23;20096;-66
2021/05/16 07:21:49;;;;;;;23.77;14.80;;;13.70;81.00;;;;;;6155117;23;20016;-68
2021/05/16 07:24:15;;;;;;;22.45;14.18;;;14.00;80.50;;;;;;6155682;23;20013;-66
2021/05/16 07:26:41;;;;;;;7.50;4.40;;;14.30;79.90;;;;;;6182566;23;20079;-64
2021/05/16 07:29:06;;;;;;;27.85;19.63;;;14.60;79.00;;;;;;6154489;23;20013;-65
2021/05/16 07:31:32;;;;;;;29.55;19.05;;;14.70;77.90;;;;;;6155809;23;20020;-66
2021/05/16 07:33:58;;;;;;;15.48;11.35;;;14.60;77.60;;;;;;6154469;23;20017;-64
2021/05/16 07:36:24;;;;;;;30.27;20.58;;;14.40;78.00;;;;;;6179912;23;20077;-68
2021/05/16 07:39:10;;;;;;;24.00;14.23;;;14.50;78.00;;;;;;6137266;23;20665;-69
2021/05/16 07:41:35;;;;;;;28.23;17.60;;;14.20;78.10;;;;;;6130536;23;20012;-66
2021/05/16 07:44:01;;;;;;;23.63;17.98;;;14.10;78.50;;;;;;6154271;23;20016;-67
2021/05/16 07:46:27;;;;;;;14.50;8.48;;;13.90;78.80;;;;;;6153977;23;20017;-65
2021/05/16 07:48:53;;;;;;;11.85;8.57;;;13.70;79.80;;;;;;6179893;23;20020;-65
2021/05/16 07:51:18;;;;;;;24.13;17.70;;;13.80;80.30;;;;;;6180799;23;20466;-71
2021/05/16 07:53:44;;;;;;;20.45;14.75;;;13.80;80.10;;;;;;6180425;23;20013;-71
2021/05/16 07:56:10;;;;;;;18.70;10.82;;;13.70;80.40;;;;;;6156658;23;20017;-67
2021/05/16 07:58:36;;;;;;;18.58;12.50;;;13.70;80.20;;;;;;6181268;23;20017;-67
2021/05/16 08:01:03;;;;;;;17.52;11.20;;;13.90;79.30;;;;;;6182029;23;20013;-66
2021/05/16 08:03:29;;;;;;;14.30;7.70;;;14.00;77.90;;;;;;6154984;23;20036;-63
2021/05/16 08:05:55;;;;;;;9.50;6.80;;;14.30;77.90;;;;;;6180248;23;20009;-65
2021/05/16 08:08:21;;;;;;;5.85;4.20;;;14.70;77.60;;;;;;6154007;23;20517;-66
2021/05/16 08:10:47;;;;;;;10.02;6.78;;;15.10;76.70;;;;;;6129330;23;20021;-66
2021/05/16 08:13:13;;;;;;;9.15;6.15;;;15.60;75.30;;;;;;6156140;23;20013;-66
2021/05/16 08:15:39;;;;;;;8.43;5.38;;;16.00;74.00;;;;;;6155103;23;20024;-64
2021/05/16 08:18:05;;;;;;;8.63;5.88;;;16.30;72.90;;;;;;6180912;23;20017;-64
2021/05/16 08:20:34;;;;;;;6.05;4.50;;;16.60;72.20;;;;;;6178408;23;20020;-65
2021/05/16 08:23:00;;;;;;;8.93;5.18;;;16.70;71.20;;;;;;6180961;23;20039;-65
2021/05/16 08:25:26;;;;;;;16.55;9.55;;;16.80;71.00;;;;;;6180102;23;20080;-65
2021/05/16 08:27:52;;;;;;;14.40;7.55;;;16.80;70.50;;;;;;6153589;23;20017;-65
2021/05/16 08:30:19;;;;;;;10.23;5.07;;;16.70;70.10;;;;;;6179679;23;20111;-64
2021/05/16 08:32:45;;;;;;;8.20;6.15;;;16.70;70.50;;;;;;6155401;23;20013;-65
2021/05/16 08:35:11;;;;;;;9.80;5.88;;;16.80;70.40;;;;;;6179585;23;20115;-65
2021/05/16 08:37:38;;;;;;;10.07;6.45;;;16.90;69.50;;;;;;6181771;23;20027;-65
2021/05/16 08:40:05;;;;;;;11.23;7.15;;;16.90;69.10;;;;;;6132459;23;20048;-66
2021/05/16 08:42:31;;;;;;;7.28;4.75;;;16.90;68.40;;;;;;6181819;23;20517;-66
2021/05/16 08:44:57;;;;;;;12.07;8.18;;;16.70;68.30;;;;;;6181937;23;20017;-67
2021/05/16 08:47:24;;;;;;;12.13;7.35;;;16.60;68.30;;;;;;6181607;23;20017;-65
2021/05/16 08:49:50;;;;;;;13.98;8.20;;;16.40;68.60;;;;;;6181031;23;20040;-66
2021/05/16 08:52:16;;;;;;;10.63;5.95;;;16.30;69.60;;;;;;6180475;23;20021;-64
2021/05/16 08:54:44;;;;;;;12.13;6.22;;;16.40;69.70;;;;;;6183172;23;20021;-66
2021/05/16 08:57:10;;;;;;;9.43;3.17;;;16.40;69.40;;;;;;6181227;23;20021;-67
2021/05/16 09:00:02;;;;;;;8.13;2.92;;;16.20;68.60;;;;;;6180972;23;20024;-62
2021/05/16 09:02:27;;;;;;;6.30;2.70;;;16.10;68.30;;;;;;6183296;23;20013;-64
2021/05/16 09:04:53;;;;;;;4.78;2.22;;;15.90;69.70;;;;;;6182863;23;20719;-67
2021/05/16 09:07:28;;;;;;;5.28;1.98;;;15.80;70.40;;;;;;6130998;23;20382;-66
2021/05/16 09:09:55;;;;;;;4.40;1.98;;;15.70;70.50;;;;;;6130299;23;20047;-64
2021/05/16 09:12:22;;;;;;;5.25;2.10;;;15.60;71.10;;;;;;6154889;23;20017;-64
2021/05/16 09:14:53;;;;;;;10.82;3.00;;;15.70;71.60;;;;;;6180996;23;20545;-64
2021/05/16 09:17:37;;;;;;;7.90;2.60;;;15.70;72.80;;;;;;6180814;23;20529;-65
2021/05/16 09:20:06;;;;;;;10.18;2.28;;;15.70;73.70;;;;;;6180601;23;20017;-67
2021/05/16 09:22:43;;;;;;;9.00;2.45;;;15.80;75.20;;;;;;6180899;23;20092;-67
2021/05/16 09:25:10;;;;;;;4.47;2.22;;;15.90;75.30;;;;;;6183536;23;20021;-67
2021/05/16 09:27:36;;;;;;;3.90;1.60;;;16.00;73.40;;;;;;6182627;23;20021;-66
2021/05/16 09:30:17;;;;;;;7.10;2.63;;;16.00;72.40;;;;;;6182066;23;20068;-65
2021/05/16 09:32:53;;;;;;;5.75;1.90;;;15.90;72.50;;;;;;6180760;23;20020;-67
2021/05/16 09:35:37;;;;;;;2.05;1.15;;;15.80;72.40;;;;;;6182314;23;20020;-68
2021/05/16 09:38:06;;;;;;;4.22;1.45;;;15.80;72.20;;;;;;6181103;23;20443;-65
2021/05/16 09:40:40;;;;;;;3.63;1.90;;;15.90;72.00;;;;;;6180776;23;20017;-66
2021/05/16 09:43:16;;;;;;;3.03;1.40;;;16.00;72.20;;;;;;6181593;23;20024;-68
2021/05/16 09:45:53;;;;;;;4.10;2.63;;;16.20;71.40;;;;;;6154241;23;20017;-65
2021/05/16 09:48:29;;;;;;;5.38;2.15;;;16.30;71.30;;;;;;6153883;23;20013;-70
2021/05/16 09:51:04;;;;;;;4.78;1.80;;;16.50;70.70;;;;;;6182596;23;20012;-70
2021/05/16 09:53:31;;;;;;;3.22;1.38;;;16.60;70.40;;;;;;6180877;23;20348;-69
2021/05/16 09:56:13;;;;;;;3.25;1.10;;;16.60;69.90;;;;;;6154359;23;20059;-70
2021/05/16 09:58:39;;;;;;;5.60;1.58;;;16.40;69.00;;;;;;6181729;23;20103;-68
2021/05/16 10:01:07;;;;;;;3.15;1.40;;;16.40;69.80;;;;;;6183502;23;20347;-69
2021/05/16 10:03:33;;;;;;;2.35;1.27;;;16.40;69.90;;;;;;6156656;23;20017;-69
2021/05/16 10:06:00;;;;;;;3.33;1.50;;;16.40;69.30;;;;;;6181639;23;20035;-69
2021/05/16 10:08:25;;;;;;;6.15;2.35;;;16.40;69.60;;;;;;6155229;23;20021;-69
2021/05/16 10:10:52;;;;;;;4.70;2.20;;;16.40;70.10;;;;;;6180280;23;20028;-68
2021/05/16 10:13:18;;;;;;;4.68;2.40;;;16.30;70.20;;;;;;6131044;23;20406;-67
2021/05/16 10:15:45;;;;;;;5.00;2.22;;;16.20;70.50;;;;;;6155910;23;20488;-68
2021/05/16 10:18:12;;;;;;;3.70;2.10;;;16.20;70.90;;;;;;6154282;23;20020;-67
2021/05/16 10:20:40;;;;;;;4.90;2.55;;;16.20;71.20;;;;;;6180520;23;20027;-67
2021/05/16 10:23:06;;;;;;;4.72;2.42;;;16.10;70.90;;;;;;6181704;23;20017;-68
2021/05/16 10:25:41;;;;;;;6.95;2.78;;;15.90;71.00;;;;;;6153705;23;20048;-68
2021/05/16 10:28:07;;;;;;;4.63;2.70;;;15.60;71.70;;;;;;6180933;23;20021;-68
2021/05/16 10:30:36;;;;;;;5.40;3.30;;;15.40;72.70;;;;;;6180157;23;20021;-67
2021/05/16 10:33:02;;;;;;;6.72;3.40;;;15.30;73.40;;;;;;6180209;23;20024;-67
2021/05/16 10:35:48;;;;;;;7.20;3.88;;;15.30;73.90;;;;;;6180663;23;20040;-66
2021/05/16 10:38:35;;;;;;;7.18;3.03;;;15.50;73.90;;;;;;6180228;23;20021;-67
2021/05/16 10:41:25;;;;;;;12.15;4.90;;;15.80;73.50;;;;;;6181745;23;20020;-67
2021/05/16 10:43:51;;;;;;;5.90;3.65;;;16.00;73.10;;;;;;6162999;23;20028;-67
2021/05/16 10:46:35;;;;;;;8.20;4.03;;;16.20;72.50;;;;;;6181016;23;20339;-67
2021/05/16 10:49:24;;;;;;;7.20;4.45;;;16.40;71.80;;;;;;6181225;23;20139;-68
2021/05/16 10:51:50;;;;;;;5.82;3.92;;;16.70;71.50;;;;;;6181296;23;20032;-68
2021/05/16 10:54:33;;;;;;;4.75;2.80;;;17.10;70.90;;;;;;6180980;23;20776;-68
2021/05/16 10:57:28;;;;;;;4.05;2.45;;;17.50;70.60;;;;;;6181472;23;20017;-68
2021/05/16 10:59:53;;;;;;;6.68;3.50;;;17.40;68.40;;;;;;6182355;23;20037;-68
2021/05/16 11:02:58;;;;;;;5.25;2.83;;;17.40;69.50;;;;;;6180254;23;20462;-67
2021/05/16 11:05:53;;;;;;;6.55;3.50;;;17.40;68.90;;;;;;6181092;23;20013;-69
2021/05/16 11:08:19;;;;;;;4.55;2.88;;;17.30;69.10;;;;;;6180130;23;20096;-67
2021/05/16 11:10:51;;;;;;;5.13;3.15;;;17.40;69.10;;;;;;6182247;23;20728;-67
2021/05/16 11:13:38;;;;;;;15.23;3.35;;;17.70;69.20;;;;;;6181950;23;20028;-67
2021/05/16 11:16:07;;;;;;;5.60;2.55;;;17.80;68.60;;;;;;6155552;23;20037;-67
2021/05/16 11:18:37;;;;;;;5.40;3.20;;;17.90;68.20;;;;;;6154877;23;20021;-67
2021/05/16 11:21:05;;;;;;;5.15;3.17;;;18.00;68.10;;;;;;6129952;23;20411;-67
2021/05/16 11:23:36;;;;;;;3.80;2.22;;;18.20;66.70;;;;;;6154842;23;20067;-67
2021/05/16 11:26:02;;;;;;;3.42;2.13;;;18.20;65.70;;;;;;6181192;23;20062;-67
2021/05/16 11:28:30;;;;;;;6.05;2.70;;;18.00;65.50;;;;;;6179771;23;20343;-67
2021/05/16 11:30:57;;;;;;;4.05;1.77;;;18.10;66.80;;;;;;6154845;23;20055;-67
2021/05/16 11:33:28;;;;;;;3.00;1.50;;;18.00;66.30;;;;;;6181402;23;20312;-68
2021/05/16 11:35:53;;;;;;;3.35;1.52;;;18.00;65.40;;;;;;6180801;23;20009;-67
2021/05/16 11:38:26;;;;;;;3.58;1.75;;;17.90;64.90;;;;;;6180293;23;20039;-68
2021/05/16 11:40:54;;;;;;;3.78;1.63;;;17.80;65.00;;;;;;6181483;23;20443;-68
2021/05/16 11:43:30;;;;;;;2.92;1.40;;;17.70;63.70;;;;;;6179969;23;20400;-67
2021/05/16 11:45:56;;;;;;;3.60;1.30;;;17.60;63.40;;;;;;6181119;23;20053;-67
2021/05/16 11:48:35;;;;;;;3.33;2.30;;;17.40;63.30;;;;;;6179915;23;20020;-68
2021/05/16 11:51:10;;;;;;;5.57;2.40;;;17.20;62.90;;;;;;6180917;23;20088;-68
2021/05/16 11:53:37;;;;;;;9.02;3.03;;;17.20;64.30;;;;;;6179778;23;20017;-68
2021/05/16 11:56:06;;;;;;;4.00;2.63;;;17.20;65.00;;;;;;6182246;23;20588;-67
2021/05/16 11:58:32;;;;;;;3.75;2.45;;;17.30;65.20;;;;;;6179449;23;20021;-67
2021/05/16 12:00:59;;;;;;;2.75;1.20;;;17.40;64.90;;;;;;6182637;23;20009;-67
2021/05/16 12:03:25;;;;;;;5.13;1.10;;;17.20;63.50;;;;;;6180031;23;20036;-67
2021/05/16 12:06:02;;;;;;;4.00;1.70;;;17.00;63.60;;;;;;6153415;23;20099;-67
2021/05/16 12:08:28;;;;;;;5.15;2.10;;;16.70;64.80;;;;;;6153400;23;20028;-66
2021/05/16 12:11:16;;;;;;;4.85;2.58;;;16.70;66.20;;;;;;6131838;23;20005;-67
2021/05/16 12:13:42;;;;;;;6.35;1.70;;;16.90;66.00;;;;;;6182187;23;20021;-67
2021/05/16 12:16:19;;;;;;;4.93;1.63;;;17.20;67.10;;;;;;6181692;23;20016;-67
2021/05/16 12:18:48;;;;;;;4.57;2.08;;;17.50;67.10;;;;;;6181734;23;20013;-67
2021/05/16 12:21:15;;;;;;;4.30;2.30;;;17.80;66.10;;;;;;6182687;23;20080;-67
2021/05/16 12:23:52;;;;;;;6.43;1.77;;;18.10;65.60;;;;;;6155978;23;20021;-67
2021/05/16 12:26:18;;;;;;;5.50;2.10;;;18.20;63.90;;;;;;6182381;23;20068;-66
2021/05/16 12:28:46;;;;;;;3.08;1.75;;;18.20;63.40;;;;;;6184164;23;20623;-66
2021/05/16 12:31:12;;;;;;;3.83;2.08;;;18.10;63.60;;;;;;6183018;23;20097;-66
2021/05/16 12:33:38;;;;;;;3.13;1.92;;;18.20;64.20;;;;;;6182598;23;20522;-66
2021/05/16 12:36:06;;;;;;;5.63;2.03;;;18.30;64.60;;;;;;6182533;23;20087;-67
2021/05/16 13:23:02;;;;;;;5.18;2.15;;;18.70;60.10;;;;;;6135595;23;20033;31
2021/05/16 13:28:30;;;;;;;3.30;2.03;;;18.70;59.30;;;;;;6148478;23;20029;-63
2021/05/16 13:31:07;;;;;;;3.67;1.75;;;18.70;60.80;;;;;;6126011;23;20088;-62